sensor_id;sensor_type;location;lat;lon;timestamp;temperature;humidity
7341;DHT22;6870;50.944;6.932;2023-02-20T00:01:44;19.50;36.80
7341;DHT22;6870;50.944;6.932;2023-02-20T00:04:15;19.40;37.30
7341;DHT22;6870;50.944;6.932;2023-02-20T00:06:43;19.70;37.20
7341;DHT22;6870;50.944;6.932;2023-02-20T00:09:12;19.50;37.30
7341;DHT22;6870;50.944;6.932;2023-02-20T00:11:40;19.20;36.30
7341;DHT22;6870;50.944;6.932;2023-02-20T00:14:08;19.50;36.90
7341;DHT22;6870;50.944;6.932;2023-02-20T00:16:36;19.30;36.70
7341;DHT22;6870;50.944;6.932;2023-02-20T00:19:06;19.40;36.60
7341;DHT22;6870;50.944;6.932;2023-02-20T00:21:34;19.60;37.50
7341;DHT22;6870;50.944;6.932;2023-02-20T00:24:02;19.40;36.70
7341;DHT22;6870;50.944;6.932;2023-02-20T00:26:30;19.60;37.30
7341;DHT22;6870;50.944;6.932;2023-02-20T00:28:58;19.60;37.50
7341;DHT22;6870;50.944;6.932;2023-02-20T00:31:27;19.50;37.00
7341;DHT22;6870;50.944;6.932;2023-02-20T00:33:55;19.70;37.00
7341;DHT22;6870;50.944;6.932;2023-02-20T00:36:24;19.40;36.90
7341;DHT22;6870;50.944;6.932;2023-02-20T00:38:52;19.60;36.70
7341;DHT22;6870;50.944;6.932;2023-02-20T00:41:20;19.70;37.60
7341;DHT22;6870;50.944;6.932;2023-02-20T00:43:48;19.50;37.40
7341;DHT22;6870;50.944;6.932;2023-02-20T00:46:16;19.50;37.40
7341;DHT22;6870;50.944;6.932;2023-02-20T00:48:44;19.60;37.50
7341;DHT22;6870;50.944;6.932;2023-02-20T00:51:12;19.60;37.50
7341;DHT22;6870;50.944;6.932;2023-02-20T00:53:42;19.60;37.40
7341;DHT22;6870;50.944;6.932;2023-02-20T00:56:10;19.60;37.40
7341;DHT22;6870;50.944;6.932;2023-02-20T00:58:38;19.30;37.20
7341;DHT22;6870;50.944;6.932;2023-02-20T01:01:07;19.40;37.30
7341;DHT22;6870;50.944;6.932;2023-02-20T01:03:35;19.60;37.50
7341;DHT22;6870;50.944;6.932;2023-02-20T01:06:03;19.60;37.70
7341;DHT22;6870;50.944;6.932;2023-02-20T01:08:31;19.50;37.80
7341;DHT22;6870;50.944;6.932;2023-02-20T01:11:00;19.60;38.00
7341;DHT22;6870;50.944;6.932;2023-02-20T01:13:28;19.20;37.90
7341;DHT22;6870;50.944;6.932;2023-02-20T01:15:56;19.40;38.20
7341;DHT22;6870;50.944;6.932;2023-02-20T01:18:25;19.30;38.50
7341;DHT22;6870;50.944;6.932;2023-02-20T01:20:53;19.10;38.30
7341;DHT22;6870;50.944;6.932;2023-02-20T01:23:21;19.20;38.20
7341;DHT22;6870;50.944;6.932;2023-02-20T01:25:50;18.50;25.60
7341;DHT22;6870;50.944;6.932;2023-02-20T01:28:19;17.80;25.20
7341;DHT22;6870;50.944;6.932;2023-02-20T01:30:47;16.60;25.50
7341;DHT22;6870;50.944;6.932;2023-02-20T01:33:15;16.70;26.40
7341;DHT22;6870;50.944;6.932;2023-02-20T01:35:43;16.20;25.90
7341;DHT22;6870;50.944;6.932;2023-02-20T01:38:12;16.20;26.20
7341;DHT22;6870;50.944;6.932;2023-02-20T01:40:46;16.20;32.70
7341;DHT22;6870;50.944;6.932;2023-02-20T01:43:15;17.00;32.70
7341;DHT22;6870;50.944;6.932;2023-02-20T01:45:45;17.30;29.90
7341;DHT22;6870;50.944;6.932;2023-02-20T01:48:20;17.90;29.50
7341;DHT22;6870;50.944;6.932;2023-02-20T01:50:52;17.70;28.50
7341;DHT22;6870;50.944;6.932;2023-02-20T01:53:24;18.10;28.80
7341;DHT22;6870;50.944;6.932;2023-02-20T01:55:56;18.20;29.00
7341;DHT22;6870;50.944;6.932;2023-02-20T01:58:28;18.40;29.30
7341;DHT22;6870;50.944;6.932;2023-02-20T02:01:03;18.40;29.50
7341;DHT22;6870;50.944;6.932;2023-02-20T02:03:43;18.20;29.30
7341;DHT22;6870;50.944;6.932;2023-02-20T02:06:15;18.20;29.60
7341;DHT22;6870;50.944;6.932;2023-02-20T02:08:44;18.20;29.80
7341;DHT22;6870;50.944;6.932;2023-02-20T02:11:14;18.30;30.00
7341;DHT22;6870;50.944;6.932;2023-02-20T02:13:44;18.40;30.30
7341;DHT22;6870;50.944;6.932;2023-02-20T02:16:20;18.40;30.40
7341;DHT22;6870;50.944;6.932;2023-02-20T02:18:56;18.10;30.20
7341;DHT22;6870;50.944;6.932;2023-02-20T02:25:32;18.40;31.00
7341;DHT22;6870;50.944;6.932;2023-02-20T02:31:55;18.10;31.10
7341;DHT22;6870;50.944;6.932;2023-02-20T02:37:52;18.50;32.10
7341;DHT22;6870;50.944;6.932;2023-02-20T02:40:36;18.00;31.90
7341;DHT22;6870;50.944;6.932;2023-02-20T02:43:15;18.10;32.10
7341;DHT22;6870;50.944;6.932;2023-02-20T02:45:49;18.00;32.10
7341;DHT22;6870;50.944;6.932;2023-02-20T02:48:25;18.40;32.80
7341;DHT22;6870;50.944;6.932;2023-02-20T02:50:58;18.20;32.80
7341;DHT22;6870;50.944;6.932;2023-02-20T02:53:30;18.20;32.80
7341;DHT22;6870;50.944;6.932;2023-02-20T02:55:58;18.00;32.80
7341;DHT22;6870;50.944;6.932;2023-02-20T02:58:47;18.30;33.10
7341;DHT22;6870;50.944;6.932;2023-02-20T03:01:19;18.70;33.70
7341;DHT22;6870;50.944;6.932;2023-02-20T03:03:49;18.40;33.80
7341;DHT22;6870;50.944;6.932;2023-02-20T03:06:21;18.10;33.50
7341;DHT22;6870;50.944;6.932;2023-02-20T03:08:59;18.50;34.20
7341;DHT22;6870;50.944;6.932;2023-02-20T03:11:31;18.00;34.00
7341;DHT22;6870;50.944;6.932;2023-02-20T03:14:03;18.10;34.00
7341;DHT22;6870;50.944;6.932;2023-02-20T03:16:58;18.00;33.90
7341;DHT22;6870;50.944;6.932;2023-02-20T03:19:35;18.20;34.30
7341;DHT22;6870;50.944;6.932;2023-02-20T03:22:08;18.20;34.30
7341;DHT22;6870;50.944;6.932;2023-02-20T03:24:42;18.50;34.70
7341;DHT22;6870;50.944;6.932;2023-02-20T03:27:27;18.30;34.70
7341;DHT22;6870;50.944;6.932;2023-02-20T03:30:08;18.40;34.80
7341;DHT22;6870;50.944;6.932;2023-02-20T03:32:41;18.20;34.60
7341;DHT22;6870;50.944;6.932;2023-02-20T03:35:29;18.20;34.70
7341;DHT22;6870;50.944;6.932;2023-02-20T03:38:17;18.20;34.80
7341;DHT22;6870;50.944;6.932;2023-02-20T03:41:07;18.30;35.00
7341;DHT22;6870;50.944;6.932;2023-02-20T03:43:53;18.20;35.00
7341;DHT22;6870;50.944;6.932;2023-02-20T03:46:22;18.00;35.20
7341;DHT22;6870;50.944;6.932;2023-02-20T03:48:54;18.00;35.20
7341;DHT22;6870;50.944;6.932;2023-02-20T03:51:25;18.20;35.40
7341;DHT22;6870;50.944;6.932;2023-02-20T03:53:53;18.10;35.60
7341;DHT22;6870;50.944;6.932;2023-02-20T03:56:26;18.30;35.60
7341;DHT22;6870;50.944;6.932;2023-02-20T03:59:00;18.10;35.70
7341;DHT22;6870;50.944;6.932;2023-02-20T04:01:33;18.40;35.80
7341;DHT22;6870;50.944;6.932;2023-02-20T04:04:02;18.00;35.70
7341;DHT22;6870;50.944;6.932;2023-02-20T04:06:33;18.20;36.10
7341;DHT22;6870;50.944;6.932;2023-02-20T04:09:04;18.40;36.40
7341;DHT22;6870;50.944;6.932;2023-02-20T04:11:37;18.10;36.00
7341;DHT22;6870;50.944;6.932;2023-02-20T04:14:08;18.10;36.00
7341;DHT22;6870;50.944;6.932;2023-02-20T04:16:41;18.30;36.30
7341;DHT22;6870;50.944;6.932;2023-02-20T04:19:11;18.10;36.30
7341;DHT22;6870;50.944;6.932;2023-02-20T04:21:42;18.00;36.30
7341;DHT22;6870;50.944;6.932;2023-02-20T04:24:17;17.80;36.10
7341;DHT22;6870;50.944;6.932;2023-02-20T04:26:48;18.10;36.60
7341;DHT22;6870;50.944;6.932;2023-02-20T04:29:16;18.40;36.90
7341;DHT22;6870;50.944;6.932;2023-02-20T04:31:44;18.10;36.80
7341;DHT22;6870;50.944;6.932;2023-02-20T04:34:12;18.10;36.90
7341;DHT22;6870;50.944;6.932;2023-02-20T04:36:40;17.90;36.70
7341;DHT22;6870;50.944;6.932;2023-02-20T04:39:08;17.90;36.70
7341;DHT22;6870;50.944;6.932;2023-02-20T04:41:36;18.20;37.00
7341;DHT22;6870;50.944;6.932;2023-02-20T04:44:06;18.20;37.00
7341;DHT22;6870;50.944;6.932;2023-02-20T04:46:51;18.00;37.00
7341;DHT22;6870;50.944;6.932;2023-02-20T04:49:19;18.00;37.20
7341;DHT22;6870;50.944;6.932;2023-02-20T04:51:47;18.10;37.40
7341;DHT22;6870;50.944;6.932;2023-02-20T04:54:15;18.20;37.50
7341;DHT22;6870;50.944;6.932;2023-02-20T04:56:43;18.10;37.50
7341;DHT22;6870;50.944;6.932;2023-02-20T04:59:12;17.70;37.20
7341;DHT22;6870;50.944;6.932;2023-02-20T05:01:40;18.00;37.60
7341;DHT22;6870;50.944;6.932;2023-02-20T05:04:13;18.00;37.80
7341;DHT22;6870;50.944;6.932;2023-02-20T05:06:43;18.40;38.00
7341;DHT22;6870;50.944;6.932;2023-02-20T05:09:12;18.20;38.00
7341;DHT22;6870;50.944;6.932;2023-02-20T05:11:40;18.10;37.80
7341;DHT22;6870;50.944;6.932;2023-02-20T05:14:08;18.00;37.80
7341;DHT22;6870;50.944;6.932;2023-02-20T05:16:38;18.30;38.30
7341;DHT22;6870;50.944;6.932;2023-02-20T05:19:07;18.30;38.10
7341;DHT22;6870;50.944;6.932;2023-02-20T05:21:35;18.10;38.00
7341;DHT22;6870;50.944;6.932;2023-02-20T05:24:21;17.80;37.80
7341;DHT22;6870;50.944;6.932;2023-02-20T05:26:51;17.90;38.00
7341;DHT22;6870;50.944;6.932;2023-02-20T05:29:20;18.10;38.30
7341;DHT22;6870;50.944;6.932;2023-02-20T05:31:49;18.10;38.10
7341;DHT22;6870;50.944;6.932;2023-02-20T05:34:17;18.00;38.00
7341;DHT22;6870;50.944;6.932;2023-02-20T05:36:46;18.10;38.30
7341;DHT22;6870;50.944;6.932;2023-02-20T05:39:14;18.00;38.10
7341;DHT22;6870;50.944;6.932;2023-02-20T05:41:43;18.30;38.60
7341;DHT22;6870;50.944;6.932;2023-02-20T05:44:11;18.10;38.40
7341;DHT22;6870;50.944;6.932;2023-02-20T05:46:40;18.00;38.30
7341;DHT22;6870;50.944;6.932;2023-02-20T05:49:11;18.20;38.60
7341;DHT22;6870;50.944;6.932;2023-02-20T05:51:39;18.10;38.40
7341;DHT22;6870;50.944;6.932;2023-02-20T05:54:07;18.40;38.90
7341;DHT22;6870;50.944;6.932;2023-02-20T05:56:39;18.00;38.60
7341;DHT22;6870;50.944;6.932;2023-02-20T05:59:08;18.00;38.80
7341;DHT22;6870;50.944;6.932;2023-02-20T06:01:36;17.90;39.50
7341;DHT22;6870;50.944;6.932;2023-02-20T06:04:04;18.20;39.00
7341;DHT22;6870;50.944;6.932;2023-02-20T06:06:35;17.90;38.80
7341;DHT22;6870;50.944;6.932;2023-02-20T06:09:05;18.40;39.20
7341;DHT22;6870;50.944;6.932;2023-02-20T06:11:34;17.90;38.60
7341;DHT22;6870;50.944;6.932;2023-02-20T06:14:04;18.00;38.90
7341;DHT22;6870;50.944;6.932;2023-02-20T06:16:33;18.10;39.00
7341;DHT22;6870;50.944;6.932;2023-02-20T06:19:02;18.00;38.90
7341;DHT22;6870;50.944;6.932;2023-02-20T06:21:31;18.10;38.50
7341;DHT22;6870;50.944;6.932;2023-02-20T06:24:03;18.10;39.20
7341;DHT22;6870;50.944;6.932;2023-02-20T06:26:31;18.10;39.30
7341;DHT22;6870;50.944;6.932;2023-02-20T06:28:59;18.20;38.50
7341;DHT22;6870;50.944;6.932;2023-02-20T06:31:27;18.10;39.30
7341;DHT22;6870;50.944;6.932;2023-02-20T06:33:55;18.10;39.30
7341;DHT22;6870;50.944;6.932;2023-02-20T06:36:25;18.10;39.50
7341;DHT22;6870;50.944;6.932;2023-02-20T06:38:54;18.20;39.50
7341;DHT22;6870;50.944;6.932;2023-02-20T06:41:25;18.00;39.40
7341;DHT22;6870;50.944;6.932;2023-02-20T06:43:53;17.90;39.50
7341;DHT22;6870;50.944;6.932;2023-02-20T06:46:21;18.10;39.60
7341;DHT22;6870;50.944;6.932;2023-02-20T06:48:51;18.40;39.90
7341;DHT22;6870;50.944;6.932;2023-02-20T06:51:23;18.20;39.80
7341;DHT22;6870;50.944;6.932;2023-02-20T06:53:53;18.00;39.30
7341;DHT22;6870;50.944;6.932;2023-02-20T06:56:23;18.10;39.20
7341;DHT22;6870;50.944;6.932;2023-02-20T06:58:53;18.10;39.00
7341;DHT22;6870;50.944;6.932;2023-02-20T07:01:23;18.00;39.00
7341;DHT22;6870;50.944;6.932;2023-02-20T07:03:54;17.90;37.80
7341;DHT22;6870;50.944;6.932;2023-02-20T07:06:24;18.10;38.40
7341;DHT22;6870;50.944;6.932;2023-02-20T07:08:52;18.20;38.60
7341;DHT22;6870;50.944;6.932;2023-02-20T07:11:21;18.20;38.20
7341;DHT22;6870;50.944;6.932;2023-02-20T07:13:51;18.00;37.80
7341;DHT22;6870;50.944;6.932;2023-02-20T07:16:19;18.20;38.00
7341;DHT22;6870;50.944;6.932;2023-02-20T07:18:47;18.10;38.00
7341;DHT22;6870;50.944;6.932;2023-02-20T07:21:15;17.90;38.00
7341;DHT22;6870;50.944;6.932;2023-02-20T07:23:43;18.20;38.40
7341;DHT22;6870;50.944;6.932;2023-02-20T07:26:18;18.10;38.40
7341;DHT22;6870;50.944;6.932;2023-02-20T07:28:47;18.10;38.50
7341;DHT22;6870;50.944;6.932;2023-02-20T07:31:16;18.20;38.70
7341;DHT22;6870;50.944;6.932;2023-02-20T07:33:44;17.90;38.40
7341;DHT22;6870;50.944;6.932;2023-02-20T07:36:13;18.20;38.50
7341;DHT22;6870;50.944;6.932;2023-02-20T07:38:42;18.00;38.40
7341;DHT22;6870;50.944;6.932;2023-02-20T07:41:14;18.20;38.50
7341;DHT22;6870;50.944;6.932;2023-02-20T07:43:43;17.80;37.60
7341;DHT22;6870;50.944;6.932;2023-02-20T07:46:10;18.20;38.50
7341;DHT22;6870;50.944;6.932;2023-02-20T07:48:40;18.00;38.20
7341;DHT22;6870;50.944;6.932;2023-02-20T07:51:08;18.10;38.30
7341;DHT22;6870;50.944;6.932;2023-02-20T07:53:36;18.10;38.20
7341;DHT22;6870;50.944;6.932;2023-02-20T07:56:05;18.10;37.80
7341;DHT22;6870;50.944;6.932;2023-02-20T07:58:33;18.10;38.30
7341;DHT22;6870;50.944;6.932;2023-02-20T08:01:01;18.20;38.30
7341;DHT22;6870;50.944;6.932;2023-02-20T08:03:29;18.00;37.50
7341;DHT22;6870;50.944;6.932;2023-02-20T08:05:58;18.20;38.00
7341;DHT22;6870;50.944;6.932;2023-02-20T08:08:26;18.10;38.00
7341;DHT22;6870;50.944;6.932;2023-02-20T08:10:55;18.30;37.90
7341;DHT22;6870;50.944;6.932;2023-02-20T08:13:35;18.40;37.60
7341;DHT22;6870;50.944;6.932;2023-02-20T08:16:03;18.40;37.50
7341;DHT22;6870;50.944;6.932;2023-02-20T08:18:32;18.40;37.40
7341;DHT22;6870;50.944;6.932;2023-02-20T08:21:01;18.50;37.70
7341;DHT22;6870;50.944;6.932;2023-02-20T08:23:29;18.50;37.00
7341;DHT22;6870;50.944;6.932;2023-02-20T08:25:57;18.50;36.80
7341;DHT22;6870;50.944;6.932;2023-02-20T08:28:26;18.50;37.50
7341;DHT22;6870;50.944;6.932;2023-02-20T08:30:54;18.60;37.10
7341;DHT22;6870;50.944;6.932;2023-02-20T08:33:22;19.00;37.50
7341;DHT22;6870;50.944;6.932;2023-02-20T08:35:50;18.80;36.70
7341;DHT22;6870;50.944;6.932;2023-02-20T08:38:27;18.60;37.00
7341;DHT22;6870;50.944;6.932;2023-02-20T08:40:57;19.00;37.00
7341;DHT22;6870;50.944;6.932;2023-02-20T08:43:25;18.90;36.70
7341;DHT22;6870;50.944;6.932;2023-02-20T08:45:54;18.80;36.40
7341;DHT22;6870;50.944;6.932;2023-02-20T08:48:22;18.90;36.30
7341;DHT22;6870;50.944;6.932;2023-02-20T08:50:50;19.20;36.20
7341;DHT22;6870;50.944;6.932;2023-02-20T08:53:19;19.00;36.20
7341;DHT22;6870;50.944;6.932;2023-02-20T08:55:48;19.20;36.00
7341;DHT22;6870;50.944;6.932;2023-02-20T08:58:19;19.50;36.00
7341;DHT22;6870;50.944;6.932;2023-02-20T09:00:48;19.40;35.30
7341;DHT22;6870;50.944;6.932;2023-02-20T09:03:17;19.60;35.90
7341;DHT22;6870;50.944;6.932;2023-02-20T09:05:45;18.80;35.10
7341;DHT22;6870;50.944;6.932;2023-02-20T09:08:14;18.90;35.50
7341;DHT22;6870;50.944;6.932;2023-02-20T09:10:43;18.80;36.10
7341;DHT22;6870;50.944;6.932;2023-02-20T09:13:12;19.10;36.10
7341;DHT22;6870;50.944;6.932;2023-02-20T09:15:41;19.10;37.00
7341;DHT22;6870;50.944;6.932;2023-02-20T09:18:12;18.70;36.10
7341;DHT22;6870;50.944;6.932;2023-02-20T09:20:41;18.60;37.20
7341;DHT22;6870;50.944;6.932;2023-02-20T09:23:09;19.10;36.70
7341;DHT22;6870;50.944;6.932;2023-02-20T09:25:37;18.80;36.20
7341;DHT22;6870;50.944;6.932;2023-02-20T09:28:05;18.80;36.00
7341;DHT22;6870;50.944;6.932;2023-02-20T09:30:36;19.40;36.60
7341;DHT22;6870;50.944;6.932;2023-02-20T09:33:04;19.20;36.40
7341;DHT22;6870;50.944;6.932;2023-02-20T09:35:32;19.30;36.00
7341;DHT22;6870;50.944;6.932;2023-02-20T09:38:00;19.50;36.90
7341;DHT22;6870;50.944;6.932;2023-02-20T09:40:29;19.60;35.50
7341;DHT22;6870;50.944;6.932;2023-02-20T09:43:08;19.80;35.00
7341;DHT22;6870;50.944;6.932;2023-02-20T09:45:46;20.00;35.40
7341;DHT22;6870;50.944;6.932;2023-02-20T09:48:27;19.70;28.70
7341;DHT22;6870;50.944;6.932;2023-02-20T09:51:03;18.80;24.60
7341;DHT22;6870;50.944;6.932;2023-02-20T09:53:37;18.00;24.20
7341;DHT22;6870;50.944;6.932;2023-02-20T09:56:19;17.60;24.90
7341;DHT22;6870;50.944;6.932;2023-02-20T09:58:53;17.00;24.20
7341;DHT22;6870;50.944;6.932;2023-02-20T10:01:27;17.00;24.60
7341;DHT22;6870;50.944;6.932;2023-02-20T10:03:57;16.70;25.20
7341;DHT22;6870;50.944;6.932;2023-02-20T10:06:30;16.80;24.80
7341;DHT22;6870;50.944;6.932;2023-02-20T10:08:59;16.60;25.30
7341;DHT22;6870;50.944;6.932;2023-02-20T10:11:42;16.90;24.90
7341;DHT22;6870;50.944;6.932;2023-02-20T10:14:28;17.70;23.00
7341;DHT22;6870;50.944;6.932;2023-02-20T10:17:12;17.20;23.50
7341;DHT22;6870;50.944;6.932;2023-02-20T10:19:49;16.90;24.10
7341;DHT22;6870;50.944;6.932;2023-02-20T10:22:22;17.10;24.10
7341;DHT22;6870;50.944;6.932;2023-02-20T10:25:07;17.60;23.40
7341;DHT22;6870;50.944;6.932;2023-02-20T10:27:47;17.80;23.70
7341;DHT22;6870;50.944;6.932;2023-02-20T10:30:26;17.90;23.00
7341;DHT22;6870;50.944;6.932;2023-02-20T10:33:02;17.80;23.40
7341;DHT22;6870;50.944;6.932;2023-02-20T10:35:35;17.70;22.90
7341;DHT22;6870;50.944;6.932;2023-02-20T10:38:09;17.90;22.60
7341;DHT22;6870;50.944;6.932;2023-02-20T10:40:42;18.20;22.20
7341;DHT22;6870;50.944;6.932;2023-02-20T10:43:18;18.30;21.90
7341;DHT22;6870;50.944;6.932;2023-02-20T10:45:54;18.30;22.60
7341;DHT22;6870;50.944;6.932;2023-02-20T10:48:30;19.40;22.40
7341;DHT22;6870;50.944;6.932;2023-02-20T10:51:04;19.80;21.80
7341;DHT22;6870;50.944;6.932;2023-02-20T10:53:38;19.90;21.30
7341;DHT22;6870;50.944;6.932;2023-02-20T10:56:13;20.00;21.30
7341;DHT22;6870;50.944;6.932;2023-02-20T10:58:52;20.20;19.80
7341;DHT22;6870;50.944;6.932;2023-02-20T11:01:25;19.30;20.80
7341;DHT22;6870;50.944;6.932;2023-02-20T11:03:58;18.20;21.00
7341;DHT22;6870;50.944;6.932;2023-02-20T11:06:33;18.20;24.90
7341;DHT22;6870;50.944;6.932;2023-02-20T11:09:05;19.20;23.90
7341;DHT22;6870;50.944;6.932;2023-02-20T11:11:35;19.90;23.40
7341;DHT22;6870;50.944;6.932;2023-02-20T11:14:11;19.90;23.60
7341;DHT22;6870;50.944;6.932;2023-02-20T11:16:45;20.20;23.20
7341;DHT22;6870;50.944;6.932;2023-02-20T11:19:20;20.50;23.90
7341;DHT22;6870;50.944;6.932;2023-02-20T11:21:51;20.60;23.50
7341;DHT22;6870;50.944;6.932;2023-02-20T11:24:30;20.50;23.30
7341;DHT22;6870;50.944;6.932;2023-02-20T11:27:08;20.30;23.90
7341;DHT22;6870;50.944;6.932;2023-02-20T11:29:50;20.60;24.40
7341;DHT22;6870;50.944;6.932;2023-02-20T11:32:28;20.50;24.30
7341;DHT22;6870;50.944;6.932;2023-02-20T11:35:22;20.30;23.80
7341;DHT22;6870;50.944;6.932;2023-02-20T11:38:26;20.50;24.00
7341;DHT22;6870;50.944;6.932;2023-02-20T11:41:18;19.90;23.90
7341;DHT22;6870;50.944;6.932;2023-02-20T11:44:20;20.40;24.40
7341;DHT22;6870;50.944;6.932;2023-02-20T11:47:16;20.30;24.40
7341;DHT22;6870;50.944;6.932;2023-02-20T11:50:08;20.50;24.70
7341;DHT22;6870;50.944;6.932;2023-02-20T11:52:57;20.60;24.70
7341;DHT22;6870;50.944;6.932;2023-02-20T11:55:27;20.70;24.60
7341;DHT22;6870;50.944;6.932;2023-02-20T11:57:56;20.90;24.60
7341;DHT22;6870;50.944;6.932;2023-02-20T12:00:26;20.90;23.80
7341;DHT22;6870;50.944;6.932;2023-02-20T12:02:57;21.10;24.20
7341;DHT22;6870;50.944;6.932;2023-02-20T12:05:39;20.90;23.80
7341;DHT22;6870;50.944;6.932;2023-02-20T12:08:33;21.20;23.10
7341;DHT22;6870;50.944;6.932;2023-02-20T12:11:06;21.10;23.60
7341;DHT22;6870;50.944;6.932;2023-02-20T12:13:37;21.30;23.80
7341;DHT22;6870;50.944;6.932;2023-02-20T12:16:21;21.10;22.40
7341;DHT22;6870;50.944;6.932;2023-02-20T12:19:03;21.50;23.40
7341;DHT22;6870;50.944;6.932;2023-02-20T12:21:44;21.70;23.40
7341;DHT22;6870;50.944;6.932;2023-02-20T12:24:31;21.50;23.10
7341;DHT22;6870;50.944;6.932;2023-02-20T12:27:28;21.70;23.10
7341;DHT22;6870;50.944;6.932;2023-02-20T12:30:09;21.70;22.90
7341;DHT22;6870;50.944;6.932;2023-02-20T12:32:51;22.10;23.00
7341;DHT22;6870;50.944;6.932;2023-02-20T12:35:29;21.80;22.70
7341;DHT22;6870;50.944;6.932;2023-02-20T12:38:26;22.00;22.90
7341;DHT22;6870;50.944;6.932;2023-02-20T12:41:19;22.10;23.00
7341;DHT22;6870;50.944;6.932;2023-02-20T12:44:10;22.10;22.90
7341;DHT22;6870;50.944;6.932;2023-02-20T12:46:52;22.10;23.50
7341;DHT22;6870;50.944;6.932;2023-02-20T12:49:44;22.00;22.90
7341;DHT22;6870;50.944;6.932;2023-02-20T12:52:35;22.00;22.60
7341;DHT22;6870;50.944;6.932;2023-02-20T12:55:19;22.50;23.10
7341;DHT22;6870;50.944;6.932;2023-02-20T12:58:02;22.20;22.70
7341;DHT22;6870;50.944;6.932;2023-02-20T13:00:38;22.50;23.00
7341;DHT22;6870;50.944;6.932;2023-02-20T13:03:11;22.40;23.20
7341;DHT22;6870;50.944;6.932;2023-02-20T13:05:43;22.00;23.00
7341;DHT22;6870;50.944;6.932;2023-02-20T13:08:15;22.40;23.20
7341;DHT22;6870;50.944;6.932;2023-02-20T13:10:52;22.10;23.10
7341;DHT22;6870;50.944;6.932;2023-02-20T13:13:27;21.70;22.60
7341;DHT22;6870;50.944;6.932;2023-02-20T13:16:05;22.10;23.60
7341;DHT22;6870;50.944;6.932;2023-02-20T13:18:39;21.60;23.00
7341;DHT22;6870;50.944;6.932;2023-02-20T13:21:12;21.80;23.60
7341;DHT22;6870;50.944;6.932;2023-02-20T13:23:41;22.10;23.40
7341;DHT22;6870;50.944;6.932;2023-02-20T13:26:43;21.90;22.80
7341;DHT22;6870;50.944;6.932;2023-02-20T13:29:16;21.80;23.40
7341;DHT22;6870;50.944;6.932;2023-02-20T13:31:50;21.70;23.60
7341;DHT22;6870;50.944;6.932;2023-02-20T13:34:29;21.60;23.60
7341;DHT22;6870;50.944;6.932;2023-02-20T13:37:04;21.60;23.80
7341;DHT22;6870;50.944;6.932;2023-02-20T13:40:42;21.70;24.20
7341;DHT22;6870;50.944;6.932;2023-02-20T13:43:28;21.40;24.40
7341;DHT22;6870;50.944;6.932;2023-02-20T13:46:17;21.50;24.50
7341;DHT22;6870;50.944;6.932;2023-02-20T13:48:52;21.40;24.20
7341;DHT22;6870;50.944;6.932;2023-02-20T13:51:32;21.50;24.00
7341;DHT22;6870;50.944;6.932;2023-02-20T13:54:24;21.70;24.40
7341;DHT22;6870;50.944;6.932;2023-02-20T13:56:56;21.40;24.40
7341;DHT22;6870;50.944;6.932;2023-02-20T13:59:29;20.90;24.20
7341;DHT22;6870;50.944;6.932;2023-02-20T14:02:07;21.50;24.70
7341;DHT22;6870;50.944;6.932;2023-02-20T14:04:54;21.40;24.60
7341;DHT22;6870;50.944;6.932;2023-02-20T14:07:34;21.50;24.40
7341;DHT22;6870;50.944;6.932;2023-02-20T14:10:06;21.10;24.10
7341;DHT22;6870;50.944;6.932;2023-02-20T14:12:43;21.40;24.40
7341;DHT22;6870;50.944;6.932;2023-02-20T14:15:12;21.60;24.50
7341;DHT22;6870;50.944;6.932;2023-02-20T14:17:42;21.50;23.70
7341;DHT22;6870;50.944;6.932;2023-02-20T14:20:19;21.60;23.90
7341;DHT22;6870;50.944;6.932;2023-02-20T14:23:06;21.80;22.80
7341;DHT22;6870;50.944;6.932;2023-02-20T14:25:36;21.70;23.70
7341;DHT22;6870;50.944;6.932;2023-02-20T14:28:13;22.20;23.90
7341;DHT22;6870;50.944;6.932;2023-02-20T14:30:42;22.30;23.30
7341;DHT22;6870;50.944;6.932;2023-02-20T14:33:20;22.30;23.10
7341;DHT22;6870;50.944;6.932;2023-02-20T14:39:15;21.80;23.30
7341;DHT22;6870;50.944;6.932;2023-02-20T14:41:54;22.20;23.70
7341;DHT22;6870;50.944;6.932;2023-02-20T14:44:24;22.40;23.10
7341;DHT22;6870;50.944;6.932;2023-02-20T14:46:55;22.30;23.70
7341;DHT22;6870;50.944;6.932;2023-02-20T14:49:28;22.40;23.70
7341;DHT22;6870;50.944;6.932;2023-02-20T14:52:12;22.30;23.60
7341;DHT22;6870;50.944;6.932;2023-02-20T14:54:56;22.50;23.60
7341;DHT22;6870;50.944;6.932;2023-02-20T14:57:26;22.30;23.50
7341;DHT22;6870;50.944;6.932;2023-02-20T15:00:09;22.50;23.10
7341;DHT22;6870;50.944;6.932;2023-02-20T15:02:41;22.30;23.50
7341;DHT22;6870;50.944;6.932;2023-02-20T15:05:14;22.00;23.30
7341;DHT22;6870;50.944;6.932;2023-02-20T15:07:45;21.90;23.30
7341;DHT22;6870;50.944;6.932;2023-02-20T15:10:35;22.50;23.70
7341;DHT22;6870;50.944;6.932;2023-02-20T15:13:07;22.20;23.50
7341;DHT22;6870;50.944;6.932;2023-02-20T15:15:43;22.30;23.70
7341;DHT22;6870;50.944;6.932;2023-02-20T15:18:14;22.50;23.90
7341;DHT22;6870;50.944;6.932;2023-02-20T15:20:46;22.20;23.00
7341;DHT22;6870;50.944;6.932;2023-02-20T15:23:23;21.80;23.30
7341;DHT22;6870;50.944;6.932;2023-02-20T15:25:55;21.80;23.50
7341;DHT22;6870;50.944;6.932;2023-02-20T15:28:27;21.90;23.30
7341;DHT22;6870;50.944;6.932;2023-02-20T15:31:06;22.20;23.80
7341;DHT22;6870;50.944;6.932;2023-02-20T15:33:50;22.10;23.00
7341;DHT22;6870;50.944;6.932;2023-02-20T15:36:22;21.90;23.80
7341;DHT22;6870;50.944;6.932;2023-02-20T15:38:53;21.60;23.70
7341;DHT22;6870;50.944;6.932;2023-02-20T15:41:22;22.00;24.00
7341;DHT22;6870;50.944;6.932;2023-02-20T15:43:51;21.80;23.80
7341;DHT22;6870;50.944;6.932;2023-02-20T15:46:25;21.70;23.80
7341;DHT22;6870;50.944;6.932;2023-02-20T15:48:54;21.60;23.90
7341;DHT22;6870;50.944;6.932;2023-02-20T15:51:24;21.60;22.70
7341;DHT22;6870;50.944;6.932;2023-02-20T15:53:54;20.80;21.90
7341;DHT22;6870;50.944;6.932;2023-02-20T15:56:24;19.90;21.40
7341;DHT22;6870;50.944;6.932;2023-02-20T15:58:53;19.00;22.60
7341;DHT22;6870;50.944;6.932;2023-02-20T16:01:23;19.20;24.00
7341;DHT22;6870;50.944;6.932;2023-02-20T16:03:51;18.90;23.20
7341;DHT22;6870;50.944;6.932;2023-02-20T16:06:20;18.60;23.90
7341;DHT22;6870;50.944;6.932;2023-02-20T16:08:51;18.50;23.70
7341;DHT22;6870;50.944;6.932;2023-02-20T16:11:21;18.60;24.50
7341;DHT22;6870;50.944;6.932;2023-02-20T16:13:53;18.40;24.50
7341;DHT22;6870;50.944;6.932;2023-02-20T16:16:28;18.10;24.50
7341;DHT22;6870;50.944;6.932;2023-02-20T16:18:59;18.10;24.50
7341;DHT22;6870;50.944;6.932;2023-02-20T16:21:27;18.10;23.90
7341;DHT22;6870;50.944;6.932;2023-02-20T16:23:57;17.80;24.40
7341;DHT22;6870;50.944;6.932;2023-02-20T16:26:27;17.70;24.60
7341;DHT22;6870;50.944;6.932;2023-02-20T16:28:59;17.90;24.90
7341;DHT22;6870;50.944;6.932;2023-02-20T16:34:45;17.60;25.30
7341;DHT22;6870;50.944;6.932;2023-02-20T16:37:15;17.10;25.30
7341;DHT22;6870;50.944;6.932;2023-02-20T16:39:44;17.50;25.80
7341;DHT22;6870;50.944;6.932;2023-02-20T16:42:19;17.30;25.90
7341;DHT22;6870;50.944;6.932;2023-02-20T16:44:52;17.40;26.10
7341;DHT22;6870;50.944;6.932;2023-02-20T16:47:22;17.40;25.80
7341;DHT22;6870;50.944;6.932;2023-02-20T16:49:52;17.20;26.30
7341;DHT22;6870;50.944;6.932;2023-02-20T16:52:23;17.20;25.50
7341;DHT22;6870;50.944;6.932;2023-02-20T16:54:55;17.10;26.10
7341;DHT22;6870;50.944;6.932;2023-02-20T16:57:24;17.20;25.90
7341;DHT22;6870;50.944;6.932;2023-02-20T16:59:54;17.40;25.90